createdAt,value
2022-10-07T00:00:08.342Z,10.00
2022-10-07T00:00:39.494Z,10.00
2022-10-07T00:00:55.932Z,10.00
2022-10-07T00:01:27.902Z,10.00
2022-10-07T00:01:45.053Z,10.11
2022-10-07T00:02:16.089Z,10.11
2022-10-07T00:02:39.465Z,10.11
2022-10-07T00:03:03.837Z,10.11
2022-10-07T00:03:35.799Z,10.11
2022-10-07T00:04:08.166Z,10.11
2022-10-07T00:04:39.349Z,10.11
2022-10-07T00:04:55.856Z,10.11
2022-10-07T00:05:28.377Z,10.11
2022-10-07T00:05:45.597Z,10.00
2022-10-07T00:06:15.993Z,10.00
2022-10-07T00:06:39.370Z,10.00
2022-10-07T00:07:03.808Z,10.00
2022-10-07T00:07:35.911Z,10.11
2022-10-07T00:08:08.225Z,10.11
2022-10-07T00:08:39.376Z,10.11
2022-10-07T00:08:55.939Z,10.11
2022-10-07T00:09:27.895Z,10.00
2022-10-07T00:09:45.841Z,10.00
2022-10-07T00:10:15.940Z,10.00
2022-10-07T00:10:39.363Z,10.00
2022-10-07T00:11:03.855Z,10.00
2022-10-07T00:11:35.821Z,10.11
2022-10-07T00:12:08.202Z,10.11
2022-10-07T00:12:39.555Z,10.11
2022-10-07T00:12:55.941Z,10.11
2022-10-07T00:13:28.355Z,10.11
2022-10-07T00:13:45.239Z,10.11
2022-10-07T00:14:15.967Z,10.22
2022-10-07T00:14:39.896Z,10.22
2022-10-07T00:15:03.853Z,10.22
2022-10-07T00:15:36.533Z,10.27
2022-10-07T00:16:08.179Z,10.27
2022-10-07T00:16:39.653Z,10.27
2022-10-07T00:16:55.934Z,10.27
2022-10-07T00:17:27.909Z,10.27
2022-10-07T00:17:45.571Z,10.38
2022-10-07T00:18:16.033Z,10.38
2022-10-07T00:18:39.667Z,10.38
2022-10-07T00:19:03.847Z,10.38
2022-10-07T00:19:35.760Z,10.38
2022-10-07T00:20:08.071Z,10.38
2022-10-07T00:20:40.752Z,10.38
2022-10-07T00:21:11.959Z,10.27
2022-10-07T00:21:39.515Z,10.27
2022-10-07T00:22:00.041Z,10.27
2022-10-07T00:22:31.857Z,10.27
2022-10-07T00:23:03.851Z,10.22
2022-10-07T00:23:35.839Z,10.22
2022-10-07T00:24:09.825Z,10.22
2022-10-07T00:24:39.784Z,10.22
2022-10-07T00:25:11.951Z,10.22
2022-10-07T00:25:39.505Z,10.22
2022-10-07T00:26:00.234Z,10.22
2022-10-07T00:26:31.792Z,10.22
2022-10-07T00:27:04.004Z,10.22
2022-10-07T00:27:35.811Z,10.22
2022-10-07T00:28:08.209Z,10.22
2022-10-07T00:28:39.383Z,10.27
2022-10-07T00:28:55.913Z,10.27
2022-10-07T00:29:27.811Z,10.27
2022-10-07T00:29:44.771Z,10.27
2022-10-07T00:30:15.971Z,10.22
2022-10-07T00:30:39.345Z,10.22
2022-10-07T00:31:04.611Z,10.22
2022-10-07T00:31:35.849Z,10.27
2022-10-07T00:32:08.180Z,10.38
2022-10-07T00:32:39.396Z,10.38
2022-10-07T00:32:55.933Z,10.38
2022-10-07T00:33:27.995Z,10.50
2022-10-07T00:33:45.279Z,10.50
2022-10-07T00:34:16.447Z,10.50
2022-10-07T00:34:39.321Z,10.50
2022-10-07T00:35:03.844Z,10.50
2022-10-07T00:35:35.947Z,10.50
2022-10-07T00:36:08.228Z,10.50
2022-10-07T00:36:39.349Z,10.50
2022-10-07T00:36:56.035Z,10.50
2022-10-07T00:37:27.849Z,10.50
2022-10-07T00:37:46.821Z,10.50
2022-10-07T00:38:16.036Z,10.50
2022-10-07T00:38:39.435Z,10.50
2022-10-07T00:39:03.793Z,10.50
2022-10-07T00:39:36.253Z,10.50
2022-10-07T00:40:08.209Z,10.50
2022-10-07T00:40:39.355Z,10.50
2022-10-07T00:40:55.816Z,10.50
2022-10-07T00:41:27.810Z,10.50
2022-10-07T00:41:44.941Z,10.50
2022-10-07T00:42:15.964Z,10.50
2022-10-07T00:42:39.372Z,10.50
2022-10-07T00:43:04.071Z,10.50
2022-10-07T00:43:35.844Z,10.50
2022-10-07T00:44:08.291Z,10.61
2022-10-07T00:44:39.369Z,10.61
2022-10-07T00:44:55.825Z,10.61
2022-10-07T00:45:27.887Z,10.61
2022-10-07T00:45:44.902Z,10.61
2022-10-07T00:46:16.567Z,10.61
2022-10-07T00:46:39.396Z,10.61
2022-10-07T00:47:03.828Z,10.61
2022-10-07T00:47:35.844Z,10.61
2022-10-07T00:48:08.390Z,10.61
2022-10-07T00:48:39.390Z,10.61
2022-10-07T00:48:55.950Z,10.61
2022-10-07T00:49:27.805Z,10.61
2022-10-07T00:49:44.881Z,10.61
2022-10-07T00:50:15.941Z,10.61
2022-10-07T00:50:39.392Z,10.72
2022-10-07T00:51:03.921Z,10.72
2022-10-07T00:51:35.814Z,10.72
2022-10-07T00:52:08.053Z,10.61
2022-10-07T00:52:39.429Z,10.61
2022-10-07T00:52:55.839Z,10.61
2022-10-07T00:53:27.788Z,10.61
2022-10-07T00:53:44.986Z,10.61
2022-10-07T00:54:16.055Z,10.61
2022-10-07T00:54:39.493Z,10.61
2022-10-07T00:55:03.866Z,10.61
2022-10-07T00:55:35.962Z,10.61
2022-10-07T00:56:08.269Z,10.61
2022-10-07T00:56:39.369Z,10.61
2022-10-07T00:56:55.823Z,10.61
2022-10-07T00:57:27.954Z,10.61
2022-10-07T00:57:45.270Z,10.61
2022-10-07T00:58:15.998Z,10.50
2022-10-07T00:58:39.396Z,10.50
2022-10-07T00:59:03.721Z,10.50
2022-10-07T00:59:35.950Z,10.50
2022-10-07T01:00:08.334Z,10.50
2022-10-07T01:00:39.394Z,10.50
2022-10-07T01:00:55.957Z,10.38
2022-10-07T01:01:28.631Z,10.38
2022-10-07T01:01:45.968Z,10.38
2022-10-07T01:02:16.058Z,10.27
2022-10-07T01:02:40.412Z,10.27
2022-10-07T01:03:03.816Z,10.22
2022-10-07T01:03:35.846Z,10.22
2022-10-07T01:04:08.197Z,10.22
2022-10-07T01:04:39.475Z,10.11
2022-10-07T01:04:55.875Z,10.11
2022-10-07T01:05:27.802Z,10.11
2022-10-07T01:05:44.920Z,10.11
2022-10-07T01:06:15.953Z,10.11
2022-10-07T01:06:39.568Z,10.11
2022-10-07T01:07:03.792Z,10.11
2022-10-07T01:07:35.845Z,10.11
2022-10-07T01:08:08.159Z,10.11
2022-10-07T01:08:39.567Z,10.11
2022-10-07T01:09:11.917Z,10.11
2022-10-07T01:09:39.610Z,10.11
2022-10-07T01:10:00.073Z,10.11
2022-10-07T01:10:31.795Z,10.22
2022-10-07T01:11:03.820Z,10.22
2022-10-07T01:11:36.374Z,10.27
2022-10-07T01:12:08.202Z,10.27
2022-10-07T01:12:39.481Z,10.27
2022-10-07T01:13:12.005Z,10.27
2022-10-07T01:13:39.471Z,10.27
2022-10-07T01:14:00.026Z,10.27
2022-10-07T01:14:31.769Z,10.27
2022-10-07T01:15:03.825Z,10.27
2022-10-07T01:15:35.858Z,10.27
2022-10-07T01:16:08.039Z,10.27
2022-10-07T01:16:40.449Z,10.27
2022-10-07T01:17:11.824Z,10.27
2022-10-07T01:17:39.353Z,10.27
2022-10-07T01:18:00.018Z,10.27
2022-10-07T01:18:31.942Z,10.27
2022-10-07T01:19:03.820Z,10.27
2022-10-07T01:19:35.797Z,10.27
2022-10-07T01:20:08.141Z,10.22
2022-10-07T01:20:39.439Z,10.22
2022-10-07T01:21:11.816Z,10.22
2022-10-07T01:21:39.431Z,10.22
2022-10-07T01:21:59.943Z,10.22
2022-10-07T01:22:31.762Z,10.22
2022-10-07T01:23:03.835Z,10.22
2022-10-07T01:23:35.745Z,10.22
2022-10-07T01:24:08.179Z,10.22
2022-10-07T01:24:39.411Z,10.22
2022-10-07T01:24:55.790Z,10.22
2022-10-07T01:25:27.756Z,10.22
2022-10-07T01:25:45.180Z,10.22
2022-10-07T01:26:15.951Z,10.22
2022-10-07T01:26:39.421Z,10.22
2022-10-07T01:27:04.382Z,10.22
2022-10-07T01:27:35.867Z,10.22
2022-10-07T01:28:08.338Z,10.22
2022-10-07T01:28:39.515Z,10.22
2022-10-07T01:29:11.929Z,10.22
2022-10-07T01:29:39.366Z,10.22
2022-10-07T01:29:59.860Z,10.22
2022-10-07T01:30:32.174Z,10.22
2022-10-07T01:31:03.972Z,10.22
2022-10-07T01:31:36.607Z,10.22
2022-10-07T01:32:08.695Z,10.22
2022-10-07T01:32:39.364Z,10.22
2022-10-07T01:32:55.849Z,10.22
2022-10-07T01:33:27.894Z,10.22
2022-10-07T01:33:44.932Z,10.22
2022-10-07T01:34:15.923Z,10.22
2022-10-07T01:34:39.451Z,10.22
2022-10-07T01:35:03.928Z,10.11
2022-10-07T01:35:35.972Z,10.11
2022-10-07T01:36:07.907Z,10.11
2022-10-07T01:36:39.951Z,10.11
2022-10-07T01:37:12.386Z,10.11
2022-10-07T01:37:39.463Z,10.11
2022-10-07T01:37:59.983Z,10.11
2022-10-07T01:38:31.766Z,10.00
2022-10-07T01:39:03.973Z,9.88
2022-10-07T01:39:35.887Z,9.72
2022-10-07T01:40:08.329Z,9.50
2022-10-07T01:40:39.455Z,9.38
2022-10-07T01:41:12.137Z,9.27
2022-10-07T01:41:39.550Z,9.22
2022-10-07T01:42:00.299Z,9.22
2022-10-07T01:42:31.782Z,9.11
2022-10-07T01:43:04.092Z,9.11
2022-10-07T01:43:35.820Z,9.11
2022-10-07T01:44:08.134Z,9.00
2022-10-07T01:44:39.528Z,9.00
2022-10-07T01:45:11.824Z,9.00
2022-10-07T01:45:39.606Z,9.00
2022-10-07T01:45:59.949Z,9.00
2022-10-07T01:46:32.066Z,8.88
2022-10-07T01:47:03.896Z,8.88
2022-10-07T01:47:35.900Z,8.88
2022-10-07T01:48:08.011Z,8.88
2022-10-07T01:48:39.384Z,8.88
2022-10-07T01:48:55.982Z,8.88
2022-10-07T01:49:27.799Z,8.77
2022-10-07T01:49:44.880Z,8.77
2022-10-07T01:50:15.927Z,8.72
2022-10-07T01:50:39.397Z,8.72
2022-10-07T01:51:03.888Z,8.61
2022-10-07T01:51:36.000Z,8.61
2022-10-07T01:52:08.200Z,8.61
2022-10-07T01:52:39.428Z,8.50
2022-10-07T01:52:55.850Z,8.50
2022-10-07T01:53:27.836Z,8.38
2022-10-07T01:53:44.949Z,8.38
2022-10-07T01:54:15.929Z,8.38
2022-10-07T01:54:39.363Z,8.27
2022-10-07T01:55:03.875Z,8.27
2022-10-07T01:55:40.177Z,8.27
2022-10-07T01:56:12.602Z,8.22
2022-10-07T01:56:39.375Z,8.22
2022-10-07T01:56:55.839Z,8.11
2022-10-07T01:57:28.324Z,8.11
2022-10-07T01:57:45.949Z,8.11
2022-10-07T01:58:16.021Z,8.00
2022-10-07T01:58:39.389Z,8.00
2022-10-07T01:59:03.718Z,7.88
2022-10-07T01:59:35.826Z,7.88
2022-10-07T02:00:08.047Z,7.77
2022-10-07T02:00:39.362Z,7.77
2022-10-07T02:00:55.881Z,7.72
2022-10-07T02:01:27.792Z,7.72
2022-10-07T02:01:45.038Z,7.61
2022-10-07T02:02:15.927Z,7.50
2022-10-07T02:02:39.399Z,7.50
2022-10-07T02:03:03.828Z,7.38
2022-10-07T02:03:35.904Z,7.38
2022-10-07T02:04:08.215Z,7.27
2022-10-07T02:04:39.368Z,7.27
2022-10-07T02:04:55.848Z,7.22
2022-10-07T02:05:27.760Z,7.11
2022-10-07T02:05:44.899Z,7.11
2022-10-07T02:06:15.877Z,7.11
2022-10-07T02:06:40.364Z,7.00
2022-10-07T02:07:03.875Z,7.00
2022-10-07T02:07:36.390Z,7.00
2022-10-07T02:08:08.146Z,7.00
2022-10-07T02:08:39.388Z,7.00
2022-10-07T02:08:55.970Z,7.00
2022-10-07T02:09:27.877Z,7.00
2022-10-07T02:09:44.871Z,7.00
2022-10-07T02:10:15.924Z,7.00
2022-10-07T02:10:39.392Z,7.00
2022-10-07T02:11:03.855Z,7.11
2022-10-07T02:11:35.868Z,7.11
2022-10-07T02:12:08.205Z,7.11
2022-10-07T02:12:40.115Z,7.11
2022-10-07T02:13:11.820Z,7.11
2022-10-07T02:13:39.493Z,7.11
2022-10-07T02:13:59.872Z,7.11
2022-10-07T02:14:31.778Z,7.00
2022-10-07T02:15:04.051Z,7.00
2022-10-07T02:15:36.036Z,7.00
2022-10-07T02:16:10.218Z,7.00
2022-10-07T02:16:39.406Z,7.00
2022-10-07T02:16:55.760Z,7.00
2022-10-07T02:17:27.903Z,7.00
2022-10-07T02:17:46.517Z,7.00
2022-10-07T02:18:15.935Z,7.00
2022-10-07T02:18:39.413Z,7.00
2022-10-07T02:19:03.841Z,7.00
2022-10-07T02:19:35.798Z,7.00
2022-10-07T02:20:08.184Z,7.00
2022-10-07T02:20:39.644Z,7.00
2022-10-07T02:21:11.838Z,6.88
2022-10-07T02:21:39.371Z,6.88
2022-10-07T02:21:59.864Z,6.88
2022-10-07T02:22:31.896Z,6.77
2022-10-07T02:23:03.929Z,6.77
2022-10-07T02:23:35.828Z,6.72
2022-10-07T02:24:07.917Z,6.72
2022-10-07T02:24:39.457Z,6.72
2022-10-07T02:24:55.779Z,6.72
2022-10-07T02:25:27.773Z,6.72
2022-10-07T02:25:44.863Z,6.72
2022-10-07T02:26:15.917Z,6.72
2022-10-07T02:26:39.357Z,6.72
2022-10-07T02:27:03.861Z,6.72
2022-10-07T02:27:35.799Z,6.72
2022-10-07T02:28:08.221Z,6.72
2022-10-07T02:28:39.565Z,6.72
2022-10-07T02:28:55.971Z,6.72
2022-10-07T02:29:27.794Z,6.72
2022-10-07T02:29:44.913Z,6.72
2022-10-07T02:30:15.894Z,6.72
2022-10-07T02:30:39.481Z,6.72
2022-10-07T02:31:04.069Z,6.72
2022-10-07T02:31:35.920Z,6.72
2022-10-07T02:32:08.248Z,6.72
2022-10-07T02:32:39.379Z,6.72
2022-10-07T02:32:56.455Z,6.72
2022-10-07T02:33:27.802Z,6.72
2022-10-07T02:33:44.899Z,6.72
2022-10-07T02:34:19.753Z,6.72
2022-10-07T02:34:39.415Z,6.72
2022-10-07T02:35:03.935Z,6.72
2022-10-07T02:35:35.896Z,6.77
2022-10-07T02:36:07.893Z,6.77
2022-10-07T02:36:39.405Z,6.77
2022-10-07T02:36:55.839Z,6.77
2022-10-07T02:37:27.813Z,6.77
2022-10-07T02:37:45.255Z,6.77
2022-10-07T02:38:15.917Z,6.77
2022-10-07T02:38:39.368Z,6.77
2022-10-07T02:39:03.821Z,6.77
2022-10-07T02:39:35.816Z,6.77
2022-10-07T02:40:12.061Z,6.77
2022-10-07T02:40:39.381Z,6.77
2022-10-07T02:40:55.861Z,6.77
2022-10-07T02:41:27.991Z,6.77
2022-10-07T02:41:44.872Z,6.77
2022-10-07T02:42:15.826Z,6.77
2022-10-07T02:42:39.197Z,6.77
2022-10-07T02:43:04.351Z,6.88
2022-10-07T02:43:35.823Z,6.88
2022-10-07T02:44:08.126Z,7.00
2022-10-07T02:44:39.397Z,7.00
2022-10-07T02:44:55.867Z,7.00
2022-10-07T02:45:27.885Z,7.00
2022-10-07T02:45:44.842Z,7.00
2022-10-07T02:46:15.878Z,7.00
2022-10-07T02:46:39.507Z,7.00
2022-10-07T02:47:03.865Z,7.00
2022-10-07T02:47:35.818Z,7.00
2022-10-07T02:48:08.583Z,7.00
2022-10-07T02:48:39.367Z,7.00
2022-10-07T02:48:55.938Z,6.88
2022-10-07T02:49:27.797Z,6.88
2022-10-07T02:49:44.858Z,6.88
2022-10-07T02:50:15.901Z,7.00
2022-10-07T02:50:39.387Z,7.00
2022-10-07T02:51:03.873Z,7.00
2022-10-07T02:51:35.865Z,7.00
2022-10-07T02:52:08.146Z,7.00
2022-10-07T02:52:39.584Z,7.00
2022-10-07T02:53:12.473Z,7.00
2022-10-07T02:53:39.425Z,7.00
2022-10-07T02:53:59.872Z,7.00
2022-10-07T02:54:31.765Z,7.00
2022-10-07T02:55:03.879Z,7.00
2022-10-07T02:55:35.798Z,7.00
2022-10-07T02:56:08.159Z,7.11
2022-10-07T02:56:39.688Z,7.11
2022-10-07T02:57:11.892Z,7.11
2022-10-07T02:57:39.177Z,7.22
2022-10-07T02:57:59.714Z,7.22
2022-10-07T02:58:31.787Z,7.22
2022-10-07T02:59:03.838Z,7.22
2022-10-07T02:59:35.789Z,7.27
2022-10-07T03:00:11.058Z,7.27
2022-10-07T03:00:39.436Z,7.27
2022-10-07T03:00:55.849Z,7.27
2022-10-07T03:01:27.884Z,7.27
2022-10-07T03:01:44.953Z,7.27
2022-10-07T03:02:15.869Z,7.27
2022-10-07T03:02:39.416Z,7.27
2022-10-07T03:03:03.980Z,7.27
2022-10-07T03:03:35.861Z,7.27
2022-10-07T03:04:08.142Z,7.27
2022-10-07T03:04:39.404Z,7.27
2022-10-07T03:04:55.826Z,7.27
2022-10-07T03:05:27.799Z,7.27
2022-10-07T03:05:44.881Z,7.27
2022-10-07T03:06:15.925Z,7.27
2022-10-07T03:06:39.598Z,7.27
2022-10-07T03:07:03.806Z,7.27
2022-10-07T03:07:35.826Z,7.27
2022-10-07T03:08:08.512Z,7.27
2022-10-07T03:08:39.393Z,7.27
2022-10-07T03:08:56.028Z,7.27
2022-10-07T03:09:27.878Z,7.27
2022-10-07T03:09:44.871Z,7.27
2022-10-07T03:10:16.220Z,7.27
2022-10-07T03:10:39.387Z,7.27
2022-10-07T03:11:03.854Z,7.27
2022-10-07T03:11:35.828Z,7.27
2022-10-07T03:12:08.185Z,7.27
2022-10-07T03:12:39.408Z,7.27
2022-10-07T03:12:55.878Z,7.27
2022-10-07T03:13:27.847Z,7.27
2022-10-07T03:13:44.921Z,7.27
2022-10-07T03:14:15.889Z,7.22
2022-10-07T03:14:39.356Z,7.22
2022-10-07T03:15:03.836Z,7.22
2022-10-07T03:15:41.127Z,7.22
2022-10-07T03:16:08.011Z,7.22
2022-10-07T03:16:39.404Z,7.22
2022-10-07T03:16:55.826Z,7.22
2022-10-07T03:17:28.658Z,7.22
2022-10-07T03:17:45.184Z,7.22
2022-10-07T03:18:16.517Z,7.27
2022-10-07T03:18:39.393Z,7.27
2022-10-07T03:19:03.802Z,7.27
2022-10-07T03:19:35.800Z,7.27
2022-10-07T03:20:08.098Z,7.27
2022-10-07T03:20:39.398Z,7.27
2022-10-07T03:20:55.865Z,7.27
2022-10-07T03:21:27.856Z,7.27
2022-10-07T03:21:45.033Z,7.27
2022-10-07T03:22:15.887Z,7.27
2022-10-07T03:22:41.317Z,7.27
2022-10-07T03:23:03.830Z,7.27
2022-10-07T03:23:35.766Z,7.27
2022-10-07T03:24:08.149Z,7.27
2022-10-07T03:24:39.408Z,7.27
2022-10-07T03:24:55.938Z,7.27
2022-10-07T03:25:27.820Z,7.27
2022-10-07T03:25:44.846Z,7.22
2022-10-07T03:26:15.872Z,7.22
2022-10-07T03:26:39.371Z,7.22
2022-10-07T03:27:03.836Z,7.22
2022-10-07T03:27:35.785Z,7.22
2022-10-07T03:28:08.220Z,7.22
2022-10-07T03:28:39.447Z,7.22
2022-10-07T03:28:56.049Z,7.22
2022-10-07T03:29:27.776Z,7.22
2022-10-07T03:29:44.844Z,7.22
2022-10-07T03:30:15.960Z,7.22
2022-10-07T03:30:39.422Z,7.22
2022-10-07T03:31:03.899Z,7.22
2022-10-07T03:31:35.965Z,7.22
2022-10-07T03:32:08.167Z,7.22
2022-10-07T03:32:39.396Z,7.22
2022-10-07T03:32:55.849Z,7.22
2022-10-07T03:33:28.365Z,7.22
2022-10-07T03:33:46.522Z,7.22
2022-10-07T03:34:15.864Z,7.22
2022-10-07T03:34:39.446Z,7.22
2022-10-07T03:35:03.809Z,7.22
2022-10-07T03:35:35.859Z,7.22
2022-10-07T03:36:08.120Z,7.22
2022-10-07T03:36:39.409Z,7.22
2022-10-07T03:36:55.837Z,7.22
2022-10-07T03:37:27.896Z,7.22
2022-10-07T03:37:45.167Z,7.22
2022-10-07T03:38:15.883Z,7.22
2022-10-07T03:38:39.411Z,7.11
2022-10-07T03:39:03.791Z,7.11
2022-10-07T03:39:35.864Z,7.11
2022-10-07T03:40:08.051Z,7.11
2022-10-07T03:40:39.458Z,7.11
2022-10-07T03:40:55.908Z,7.22
2022-10-07T03:41:27.844Z,7.22
2022-10-07T03:41:44.915Z,7.22
2022-10-07T03:42:15.879Z,7.22
2022-10-07T03:42:39.483Z,7.22
2022-10-07T03:43:03.866Z,7.22
2022-10-07T03:43:36.394Z,7.22
2022-10-07T03:44:08.288Z,7.22
2022-10-07T03:44:39.450Z,7.22
2022-10-07T03:44:55.838Z,7.22
2022-10-07T03:45:27.935Z,7.22
2022-10-07T03:45:44.876Z,7.22
2022-10-07T03:46:16.344Z,7.11
2022-10-07T03:46:39.489Z,7.11
2022-10-07T03:47:07.578Z,7.11
2022-10-07T03:47:35.811Z,7.11
2022-10-07T03:48:08.158Z,7.11
2022-10-07T03:48:40.145Z,7.11
2022-10-07T03:49:11.885Z,7.11
2022-10-07T03:49:39.613Z,7.11
2022-10-07T03:49:59.751Z,7.11
2022-10-07T03:50:31.790Z,7.11
2022-10-07T03:51:03.828Z,7.11
2022-10-07T03:51:35.757Z,7.11
2022-10-07T03:52:08.247Z,7.00
2022-10-07T03:52:39.418Z,7.00
2022-10-07T03:52:55.857Z,7.00
2022-10-07T03:53:27.826Z,7.00
2022-10-07T03:53:45.480Z,7.00
2022-10-07T03:54:15.905Z,7.00
2022-10-07T03:54:39.386Z,7.00
2022-10-07T03:55:03.813Z,7.00
2022-10-07T03:55:35.801Z,7.00
2022-10-07T03:56:08.176Z,7.00
2022-10-07T03:56:39.414Z,7.00
2022-10-07T03:56:55.849Z,6.88
2022-10-07T03:57:27.802Z,6.88
2022-10-07T03:57:45.137Z,6.88
2022-10-07T03:58:15.886Z,6.88
2022-10-07T03:58:39.409Z,6.88
2022-10-07T03:59:03.842Z,6.88
2022-10-07T03:59:35.845Z,6.77
2022-10-07T04:00:08.287Z,6.77
2022-10-07T04:00:44.664Z,6.77
2022-10-07T04:00:55.848Z,6.72
2022-10-07T04:01:27.837Z,6.72
2022-10-07T04:01:45.050Z,6.72
2022-10-07T04:02:15.890Z,6.72
2022-10-07T04:02:39.440Z,6.61
2022-10-07T04:03:03.977Z,6.61
2022-10-07T04:03:35.767Z,6.61
2022-10-07T04:04:08.751Z,6.61
2022-10-07T04:04:41.608Z,6.61
2022-10-07T04:05:12.002Z,6.50
2022-10-07T04:05:39.409Z,6.50
2022-10-07T04:05:59.808Z,6.50
2022-10-07T04:06:31.757Z,6.50
2022-10-07T04:07:03.822Z,6.50
2022-10-07T04:07:35.814Z,6.50
2022-10-07T04:08:08.165Z,6.50
2022-10-07T04:08:39.395Z,6.50
2022-10-07T04:08:56.027Z,6.50
2022-10-07T04:09:27.871Z,6.50
2022-10-07T04:09:44.759Z,6.50
2022-10-07T04:10:15.891Z,6.50
2022-10-07T04:10:39.564Z,6.50
2022-10-07T04:11:03.870Z,6.50
2022-10-07T04:11:39.064Z,6.50
2022-10-07T04:12:07.891Z,6.50
2022-10-07T04:12:39.424Z,6.50
2022-10-07T04:12:55.848Z,6.50
2022-10-07T04:13:28.108Z,6.61
2022-10-07T04:13:45.082Z,6.61
2022-10-07T04:14:16.443Z,6.61
2022-10-07T04:14:39.449Z,6.61
2022-10-07T04:15:04.173Z,6.61
2022-10-07T04:15:35.961Z,6.61
2022-10-07T04:16:08.186Z,6.61
2022-10-07T04:16:39.532Z,6.61
2022-10-07T04:17:11.894Z,6.61
2022-10-07T04:17:39.613Z,6.61
2022-10-07T04:17:59.837Z,6.50
2022-10-07T04:18:31.761Z,6.50
2022-10-07T04:19:03.860Z,6.50
2022-10-07T04:19:35.821Z,6.50
2022-10-07T04:20:08.069Z,6.50
2022-10-07T04:20:39.411Z,6.50
2022-10-07T04:21:11.877Z,6.50
2022-10-07T04:21:39.393Z,6.50
2022-10-07T04:21:59.815Z,6.50
2022-10-07T04:22:31.779Z,6.50
2022-10-07T04:23:03.835Z,6.50
2022-10-07T04:23:35.979Z,6.50
2022-10-07T04:24:08.156Z,6.50
2022-10-07T04:24:39.387Z,6.50
2022-10-07T04:25:12.004Z,6.50
2022-10-07T04:25:40.290Z,6.50
2022-10-07T04:25:59.782Z,6.50
2022-10-07T04:26:31.772Z,6.50
2022-10-07T04:27:03.915Z,6.50
2022-10-07T04:27:51.143Z,6.50
2022-10-07T04:28:08.182Z,6.50
2022-10-07T04:28:39.491Z,6.50
2022-10-07T04:28:56.083Z,6.50
2022-10-07T04:29:28.289Z,6.50
2022-10-07T04:29:45.439Z,6.50
2022-10-07T04:30:15.956Z,6.50
2022-10-07T04:30:39.427Z,6.50
2022-10-07T04:31:03.918Z,6.61
2022-10-07T04:31:36.028Z,6.61
2022-10-07T04:32:08.116Z,6.61
2022-10-07T04:32:39.470Z,6.61
2022-10-07T04:32:55.964Z,6.61
2022-10-07T04:33:27.828Z,6.61
2022-10-07T04:33:44.969Z,6.61
2022-10-07T04:34:15.867Z,6.61
2022-10-07T04:34:39.504Z,6.61
2022-10-07T04:35:03.777Z,6.61
2022-10-07T04:35:35.812Z,6.61
2022-10-07T04:36:08.152Z,6.61
2022-10-07T04:36:39.430Z,6.61
2022-10-07T04:36:55.912Z,6.50
2022-10-07T04:37:27.921Z,6.50
2022-10-07T04:37:45.113Z,6.50
2022-10-07T04:38:16.000Z,6.50
2022-10-07T04:38:40.288Z,6.50
2022-10-07T04:39:03.797Z,6.50
2022-10-07T04:39:59.254Z,6.61
2022-10-07T04:40:08.105Z,6.61
2022-10-07T04:40:39.425Z,6.61
2022-10-07T04:40:55.885Z,6.61
2022-10-07T04:41:27.853Z,6.61
2022-10-07T04:41:44.997Z,6.61
2022-10-07T04:42:15.820Z,6.61
2022-10-07T04:42:39.475Z,6.61
2022-10-07T04:43:03.901Z,6.61
2022-10-07T04:43:35.910Z,6.61
2022-10-07T04:44:08.070Z,6.61
2022-10-07T04:44:40.152Z,6.61
2022-10-07T04:45:12.081Z,6.72
2022-10-07T04:45:39.596Z,6.72
2022-10-07T04:45:59.873Z,6.72
2022-10-07T04:46:31.839Z,6.72
2022-10-07T04:47:03.940Z,6.61
2022-10-07T04:47:36.044Z,6.61
2022-10-07T04:48:08.103Z,6.50
2022-10-07T04:48:39.483Z,6.50
2022-10-07T04:49:11.936Z,6.50
2022-10-07T04:49:39.413Z,6.50
2022-10-07T04:49:59.739Z,6.50
2022-10-07T04:50:31.822Z,6.50
2022-10-07T04:51:04.852Z,6.50
2022-10-07T04:51:35.837Z,6.50
2022-10-07T04:52:08.140Z,6.50
2022-10-07T04:52:39.436Z,6.50
2022-10-07T04:53:11.919Z,6.50
2022-10-07T04:53:39.415Z,6.50
2022-10-07T04:53:59.821Z,6.50
2022-10-07T04:54:32.313Z,6.50
2022-10-07T04:55:04.601Z,6.50
2022-10-07T04:55:35.870Z,6.50
2022-10-07T04:56:08.192Z,6.61
2022-10-07T04:56:39.425Z,6.61
2022-10-07T04:57:11.917Z,6.61
2022-10-07T04:57:39.505Z,6.61
2022-10-07T04:57:59.777Z,6.61
2022-10-07T04:58:31.855Z,6.61
2022-10-07T04:59:03.789Z,6.61
2022-10-07T04:59:38.170Z,6.61
2022-10-07T05:00:08.641Z,6.61
2022-10-07T05:00:39.928Z,6.61
2022-10-07T05:01:11.970Z,6.61
2022-10-07T05:01:39.502Z,6.61
2022-10-07T05:01:59.843Z,6.61
2022-10-07T05:02:31.893Z,6.61
2022-10-07T05:03:03.823Z,6.61
2022-10-07T05:03:35.816Z,6.61
2022-10-07T05:04:08.199Z,6.61
2022-10-07T05:04:39.396Z,6.61
2022-10-07T05:04:55.835Z,6.61
2022-10-07T05:05:28.071Z,6.61
2022-10-07T05:05:44.889Z,6.61
2022-10-07T05:06:15.840Z,6.72
2022-10-07T05:06:39.429Z,6.72
2022-10-07T05:07:03.824Z,6.72
2022-10-07T05:07:36.334Z,6.72
2022-10-07T05:08:08.133Z,6.72
2022-10-07T05:08:39.426Z,6.72
2022-10-07T05:08:56.241Z,6.72
2022-10-07T05:09:27.939Z,6.72
2022-10-07T05:09:44.744Z,6.72
2022-10-07T05:10:16.251Z,6.72
2022-10-07T05:10:39.428Z,6.72
2022-10-07T05:11:03.818Z,6.72
2022-10-07T05:11:35.842Z,6.72
2022-10-07T05:12:07.995Z,6.72
2022-10-07T05:12:39.458Z,6.72
2022-10-07T05:12:56.290Z,6.72
2022-10-07T05:13:28.067Z,6.61
2022-10-07T05:13:45.062Z,6.61
2022-10-07T05:14:15.886Z,6.61
2022-10-07T05:14:39.436Z,6.61
2022-10-07T05:15:03.781Z,6.61
2022-10-07T05:15:35.903Z,6.61
2022-10-07T05:16:08.254Z,6.61
2022-10-07T05:16:39.449Z,6.61
2022-10-07T05:16:55.833Z,6.61
2022-10-07T05:17:27.874Z,6.61
2022-10-07T05:17:44.967Z,6.61
2022-10-07T05:18:15.820Z,6.61
2022-10-07T05:18:39.789Z,6.61
2022-10-07T05:19:03.918Z,6.61
2022-10-07T05:19:36.135Z,6.50
2022-10-07T05:20:08.041Z,6.50
2022-10-07T05:20:39.500Z,6.50
2022-10-07T05:21:12.030Z,6.50
2022-10-07T05:21:41.879Z,6.50
2022-10-07T05:22:00.139Z,6.38
2022-10-07T05:22:31.868Z,6.38
2022-10-07T05:23:03.810Z,6.38
2022-10-07T05:23:35.842Z,6.38
2022-10-07T05:24:08.186Z,6.38
2022-10-07T05:24:39.471Z,6.38
2022-10-07T05:25:11.974Z,6.38
2022-10-07T05:25:39.472Z,6.38
2022-10-07T05:26:00.009Z,6.38
2022-10-07T05:26:31.888Z,6.38
2022-10-07T05:27:03.837Z,6.38
2022-10-07T05:27:35.775Z,6.27
2022-10-07T05:28:08.194Z,6.27
2022-10-07T05:28:39.620Z,6.27
2022-10-07T05:29:12.043Z,6.27
2022-10-07T05:29:39.492Z,6.27
2022-10-07T05:29:59.824Z,6.27
2022-10-07T05:30:32.473Z,6.27
2022-10-07T05:31:03.915Z,6.27
2022-10-07T05:31:36.017Z,6.27
2022-10-07T05:32:08.235Z,6.27
2022-10-07T05:32:39.398Z,6.27
2022-10-07T05:32:55.881Z,6.27
2022-10-07T05:33:27.880Z,6.27
2022-10-07T05:33:44.854Z,6.27
2022-10-07T05:34:15.843Z,6.27
2022-10-07T05:34:39.539Z,6.27
2022-10-07T05:35:03.864Z,6.27
2022-10-07T05:35:36.359Z,6.27
2022-10-07T05:36:08.184Z,6.27
2022-10-07T05:36:39.555Z,6.27
2022-10-07T05:37:11.931Z,6.27
2022-10-07T05:37:39.428Z,6.27
2022-10-07T05:37:59.986Z,6.27
2022-10-07T05:38:33.169Z,6.27
2022-10-07T05:39:04.046Z,6.27
2022-10-07T05:39:35.724Z,6.27
2022-10-07T05:40:08.299Z,6.27
2022-10-07T05:40:40.202Z,6.27
2022-10-07T05:41:12.134Z,6.27
2022-10-07T05:41:45.243Z,6.27
2022-10-07T05:41:59.956Z,6.27
2022-10-07T05:42:32.141Z,6.27
2022-10-07T05:43:04.020Z,6.27
2022-10-07T05:43:35.971Z,6.27
2022-10-07T05:44:08.389Z,6.38
2022-10-07T05:44:39.612Z,6.38
2022-10-07T05:44:56.015Z,6.38
2022-10-07T05:45:34.050Z,6.38
2022-10-07T05:45:45.719Z,6.38
2022-10-07T05:46:16.092Z,6.27
2022-10-07T05:46:39.627Z,6.27
2022-10-07T05:47:03.989Z,6.27
2022-10-07T05:47:36.002Z,6.27
2022-10-07T05:48:08.377Z,6.27
2022-10-07T05:48:39.804Z,6.27
2022-10-07T05:49:12.412Z,6.27
2022-10-07T05:49:39.609Z,6.27
2022-10-07T05:49:59.950Z,6.22
2022-10-07T05:50:32.074Z,6.22
2022-10-07T05:51:04.012Z,6.22
2022-10-07T05:51:35.912Z,6.22
2022-10-07T05:52:08.260Z,6.22
2022-10-07T05:52:39.632Z,6.22
2022-10-07T05:53:12.183Z,6.22
2022-10-07T05:53:39.615Z,6.22
2022-10-07T05:53:59.950Z,6.22
2022-10-07T05:54:32.107Z,6.22
2022-10-07T05:55:03.958Z,6.11
2022-10-07T05:55:40.072Z,6.11
2022-10-07T05:56:08.490Z,6.11
2022-10-07T05:56:39.618Z,6.11
2022-10-07T05:57:12.182Z,6.11
2022-10-07T05:57:40.044Z,6.11
2022-10-07T05:58:00.093Z,6.11
2022-10-07T05:58:32.087Z,6.11
2022-10-07T05:59:03.980Z,6.11
2022-10-07T05:59:38.959Z,6.11
2022-10-07T06:00:08.649Z,6.11
2022-10-07T06:00:39.607Z,6.11
2022-10-07T06:01:14.218Z,6.11
2022-10-07T06:01:39.686Z,6.11
2022-10-07T06:02:00.123Z,6.22
2022-10-07T06:02:32.214Z,6.22
2022-10-07T06:03:04.000Z,6.22
2022-10-07T06:03:35.905Z,6.22
2022-10-07T06:04:08.506Z,6.22
2022-10-07T06:04:39.644Z,6.22
2022-10-07T06:05:12.080Z,6.22
2022-10-07T06:05:39.704Z,6.22
2022-10-07T06:05:59.838Z,6.22
2022-10-07T06:06:32.354Z,6.22